sensor_id;sensor_type;location;lat;lon;timestamp;temperature;humidity
70246;SHT30;57637;49.272;8.590;2024-01-15T00:02:05;-2.11;84.79
70246;SHT30;57637;49.272;8.590;2024-01-15T00:04:31;-2.09;84.91
70246;SHT30;57637;49.272;8.590;2024-01-15T00:07:00;-2.05;85.10
70246;SHT30;57637;49.272;8.590;2024-01-15T00:09:26;-2.09;84.83
70246;SHT30;57637;49.272;8.590;2024-01-15T00:11:52;-2.06;84.90
70246;SHT30;57637;49.272;8.590;2024-01-15T00:14:18;-2.06;84.84
70246;SHT30;57637;49.272;8.590;2024-01-15T00:16:45;-2.07;84.75
70246;SHT30;57637;49.272;8.590;2024-01-15T00:19:10;-2.07;84.84
70246;SHT30;57637;49.272;8.590;2024-01-15T00:21:35;-2.06;85.04
70246;SHT30;57637;49.272;8.590;2024-01-15T00:24:01;-2.06;84.90
70246;SHT30;57637;49.272;8.590;2024-01-15T00:26:26;-2.02;85.06
70246;SHT30;57637;49.272;8.590;2024-01-15T00:28:51;-2.05;85.05
70246;SHT30;57637;49.272;8.590;2024-01-15T00:31:17;-2.06;85.07
70246;SHT30;57637;49.272;8.590;2024-01-15T00:33:42;-2.00;85.30
70246;SHT30;57637;49.272;8.590;2024-01-15T00:36:08;-2.05;85.08
70246;SHT30;57637;49.272;8.590;2024-01-15T00:38:33;-2.00;85.32
70246;SHT30;57637;49.272;8.590;2024-01-15T00:40:58;-2.03;85.28
70246;SHT30;57637;49.272;8.590;2024-01-15T00:43:24;-1.97;85.33
70246;SHT30;57637;49.272;8.590;2024-01-15T00:45:49;-2.05;85.13
70246;SHT30;57637;49.272;8.590;2024-01-15T00:48:14;-2.03;85.23
70246;SHT30;57637;49.272;8.590;2024-01-15T00:50:40;-2.05;85.41
70246;SHT30;57637;49.272;8.590;2024-01-15T00:53:05;-2.06;85.34
70246;SHT30;57637;49.272;8.590;2024-01-15T00:55:30;-2.06;85.43
70246;SHT30;57637;49.272;8.590;2024-01-15T00:57:55;-2.05;85.49
70246;SHT30;57637;49.272;8.590;2024-01-15T01:00:21;-1.99;85.64
70246;SHT30;57637;49.272;8.590;2024-01-15T01:02:46;-2.00;85.54
70246;SHT30;57637;49.272;8.590;2024-01-15T01:05:11;-1.99;85.63
70246;SHT30;57637;49.272;8.590;2024-01-15T01:07:37;-1.97;85.65
70246;SHT30;57637;49.272;8.590;2024-01-15T01:10:02;-1.97;85.69
70246;SHT30;57637;49.272;8.590;2024-01-15T01:12:28;-1.99;85.57
70246;SHT30;57637;49.272;8.590;2024-01-15T01:14:54;-1.99;85.73
70246;SHT30;57637;49.272;8.590;2024-01-15T01:17:20;-1.97;85.72
70246;SHT30;57637;49.272;8.590;2024-01-15T01:19:45;-1.92;85.84
70246;SHT30;57637;49.272;8.590;2024-01-15T01:22:10;-1.93;85.77
70246;SHT30;57637;49.272;8.590;2024-01-15T01:24:36;-1.90;85.96
70246;SHT30;57637;49.272;8.590;2024-01-15T01:27:01;-1.90;85.89
70246;SHT30;57637;49.272;8.590;2024-01-15T01:29:26;-1.89;86.01
70246;SHT30;57637;49.272;8.590;2024-01-15T01:31:51;-1.87;85.94
70246;SHT30;57637;49.272;8.590;2024-01-15T01:34:17;-1.87;85.94
70246;SHT30;57637;49.272;8.590;2024-01-15T01:36:42;-1.89;85.91
70246;SHT30;57637;49.272;8.590;2024-01-15T01:39:08;-1.87;85.91
70246;SHT30;57637;49.272;8.590;2024-01-15T01:41:34;-1.87;85.95
70246;SHT30;57637;49.272;8.590;2024-01-15T01:43:59;-1.87;85.87
70246;SHT30;57637;49.272;8.590;2024-01-15T01:46:25;-1.86;85.79
70246;SHT30;57637;49.272;8.590;2024-01-15T01:48:52;-1.86;85.76
70246;SHT30;57637;49.272;8.590;2024-01-15T01:51:19;-1.86;85.70
70246;SHT30;57637;49.272;8.590;2024-01-15T01:53:46;-1.86;85.65
70246;SHT30;57637;49.272;8.590;2024-01-15T01:56:12;-1.87;85.65
70246;SHT30;57637;49.272;8.590;2024-01-15T01:58:39;-1.83;85.77
70246;SHT30;57637;49.272;8.590;2024-01-15T02:01:04;-1.87;85.62
70246;SHT30;57637;49.272;8.590;2024-01-15T02:03:30;-1.83;85.68
70246;SHT30;57637;49.272;8.590;2024-01-15T02:05:56;-1.85;85.65
70246;SHT30;57637;49.272;8.590;2024-01-15T02:08:21;-1.85;85.69
70246;SHT30;57637;49.272;8.590;2024-01-15T02:10:47;-1.85;85.69
70246;SHT30;57637;49.272;8.590;2024-01-15T02:13:12;-1.85;85.68
70246;SHT30;57637;49.272;8.590;2024-01-15T02:15:38;-1.85;85.71
70246;SHT30;57637;49.272;8.590;2024-01-15T02:18:04;-1.87;85.68
70246;SHT30;57637;49.272;8.590;2024-01-15T02:20:31;-1.89;85.71
70246;SHT30;57637;49.272;8.590;2024-01-15T02:23:03;-1.90;85.77
70246;SHT30;57637;49.272;8.590;2024-01-15T02:25:44;-1.89;85.80
70246;SHT30;57637;49.272;8.590;2024-01-15T02:28:12;-1.86;85.94
70246;SHT30;57637;49.272;8.590;2024-01-15T02:30:39;-1.90;85.83
70246;SHT30;57637;49.272;8.590;2024-01-15T02:33:06;-1.90;85.86
70246;SHT30;57637;49.272;8.590;2024-01-15T02:35:32;-1.89;85.77
70246;SHT30;57637;49.272;8.590;2024-01-15T02:37:58;-1.87;85.89
70246;SHT30;57637;49.272;8.590;2024-01-15T02:40:23;-1.89;85.82
70246;SHT30;57637;49.272;8.590;2024-01-15T02:42:49;-1.89;85.84
70246;SHT30;57637;49.272;8.590;2024-01-15T02:45:14;-1.87;85.81
70246;SHT30;57637;49.272;8.590;2024-01-15T02:47:39;-1.87;85.73
70246;SHT30;57637;49.272;8.590;2024-01-15T02:50:05;-1.89;85.77
70246;SHT30;57637;49.272;8.590;2024-01-15T02:52:30;-1.92;85.79
70246;SHT30;57637;49.272;8.590;2024-01-15T02:54:55;-1.87;85.85
70246;SHT30;57637;49.272;8.590;2024-01-15T02:57:21;-1.86;85.90
70246;SHT30;57637;49.272;8.590;2024-01-15T02:59:46;-1.90;85.84
70246;SHT30;57637;49.272;8.590;2024-01-15T03:02:11;-1.90;85.93
70246;SHT30;57637;49.272;8.590;2024-01-15T03:04:37;-1.89;85.82
70246;SHT30;57637;49.272;8.590;2024-01-15T03:07:02;-1.92;85.74
70246;SHT30;57637;49.272;8.590;2024-01-15T03:09:27;-1.87;85.91
70246;SHT30;57637;49.272;8.590;2024-01-15T03:11:53;-1.87;85.79
70246;SHT30;57637;49.272;8.590;2024-01-15T03:14:18;-1.89;85.87
70246;SHT30;57637;49.272;8.590;2024-01-15T03:16:43;-1.89;85.82
70246;SHT30;57637;49.272;8.590;2024-01-15T03:19:08;-1.89;85.94
70246;SHT30;57637;49.272;8.590;2024-01-15T03:21:34;-1.89;85.83
70246;SHT30;57637;49.272;8.590;2024-01-15T03:23:59;-1.89;85.94
70246;SHT30;57637;49.272;8.590;2024-01-15T03:26:24;-1.86;85.90
70246;SHT30;57637;49.272;8.590;2024-01-15T03:28:50;-1.87;86.08
70246;SHT30;57637;49.272;8.590;2024-01-15T03:31:15;-1.89;86.00
70246;SHT30;57637;49.272;8.590;2024-01-15T03:33:40;-1.86;86.08
70246;SHT30;57637;49.272;8.590;2024-01-15T03:36:06;-1.87;86.08
70246;SHT30;57637;49.272;8.590;2024-01-15T03:38:31;-1.86;86.20
70246;SHT30;57637;49.272;8.590;2024-01-15T03:40:57;-1.85;86.08
70246;SHT30;57637;49.272;8.590;2024-01-15T03:43:22;-1.83;86.11
70246;SHT30;57637;49.272;8.590;2024-01-15T03:45:47;-1.79;86.15
70246;SHT30;57637;49.272;8.590;2024-01-15T03:48:13;-1.82;85.98
70246;SHT30;57637;49.272;8.590;2024-01-15T03:50:38;-1.83;86.16
70246;SHT30;57637;49.272;8.590;2024-01-15T03:53:03;-1.82;86.12
70246;SHT30;57637;49.272;8.590;2024-01-15T03:55:28;-1.79;86.20
70246;SHT30;57637;49.272;8.590;2024-01-15T03:57:54;-1.79;86.11
70246;SHT30;57637;49.272;8.590;2024-01-15T04:00:19;-1.78;86.16
70246;SHT30;57637;49.272;8.590;2024-01-15T04:02:45;-1.79;86.17
70246;SHT30;57637;49.272;8.590;2024-01-15T04:05:10;-1.78;86.21
70246;SHT30;57637;49.272;8.590;2024-01-15T04:07:35;-1.79;86.21
70246;SHT30;57637;49.272;8.590;2024-01-15T04:10:01;-1.79;86.18
70246;SHT30;57637;49.272;8.590;2024-01-15T04:12:26;-1.78;86.25
70246;SHT30;57637;49.272;8.590;2024-01-15T04:14:51;-1.79;86.39
70246;SHT30;57637;49.272;8.590;2024-01-15T04:17:17;-1.75;86.34
70246;SHT30;57637;49.272;8.590;2024-01-15T04:19:45;-1.79;86.27
70246;SHT30;57637;49.272;8.590;2024-01-15T04:22:11;-1.81;86.38
70246;SHT30;57637;49.272;8.590;2024-01-15T04:24:36;-1.78;86.48
70246;SHT30;57637;49.272;8.590;2024-01-15T04:27:02;-1.78;86.41
70246;SHT30;57637;49.272;8.590;2024-01-15T04:29:27;-1.76;86.41
70246;SHT30;57637;49.272;8.590;2024-01-15T04:31:53;-1.76;86.35
70246;SHT30;57637;49.272;8.590;2024-01-15T04:34:18;-1.74;86.38
70246;SHT30;57637;49.272;8.590;2024-01-15T04:36:43;-1.76;86.36
70246;SHT30;57637;49.272;8.590;2024-01-15T04:39:10;-1.75;86.39
70246;SHT30;57637;49.272;8.590;2024-01-15T04:41:36;-1.78;86.37
70246;SHT30;57637;49.272;8.590;2024-01-15T04:44:02;-1.75;86.45
70246;SHT30;57637;49.272;8.590;2024-01-15T04:46:27;-1.75;86.47
70246;SHT30;57637;49.272;8.590;2024-01-15T04:48:52;-1.72;86.53
70246;SHT30;57637;49.272;8.590;2024-01-15T04:51:18;-1.74;86.57
70246;SHT30;57637;49.272;8.590;2024-01-15T04:53:44;-1.72;86.68
70246;SHT30;57637;49.272;8.590;2024-01-15T04:56:09;-1.74;86.65
70246;SHT30;57637;49.272;8.590;2024-01-15T04:58:34;-1.72;86.70
70246;SHT30;57637;49.272;8.590;2024-01-15T05:00:59;-1.71;86.66
70246;SHT30;57637;49.272;8.590;2024-01-15T05:03:25;-1.72;86.73
70246;SHT30;57637;49.272;8.590;2024-01-15T05:05:50;-1.71;86.68
70246;SHT30;57637;49.272;8.590;2024-01-15T05:08:15;-1.68;86.91
70246;SHT30;57637;49.272;8.590;2024-01-15T05:10:41;-1.72;86.80
70246;SHT30;57637;49.272;8.590;2024-01-15T05:13:06;-1.72;86.82
70246;SHT30;57637;49.272;8.590;2024-01-15T05:15:31;-1.71;86.99
70246;SHT30;57637;49.272;8.590;2024-01-15T05:17:56;-1.68;87.02
70246;SHT30;57637;49.272;8.590;2024-01-15T05:20:22;-1.66;87.05
70246;SHT30;57637;49.272;8.590;2024-01-15T05:22:47;-1.64;87.22
70246;SHT30;57637;49.272;8.590;2024-01-15T05:25:12;-1.64;87.14
70246;SHT30;57637;49.272;8.590;2024-01-15T05:27:38;-1.64;87.24
70246;SHT30;57637;49.272;8.590;2024-01-15T05:30:03;-1.62;87.19
70246;SHT30;57637;49.272;8.590;2024-01-15T05:32:29;-1.59;87.27
70246;SHT30;57637;49.272;8.590;2024-01-15T05:34:54;-1.61;87.30
70246;SHT30;57637;49.272;8.590;2024-01-15T05:37:20;-1.59;87.27
70246;SHT30;57637;49.272;8.590;2024-01-15T05:39:45;-1.56;87.36
70246;SHT30;57637;49.272;8.590;2024-01-15T05:42:10;-1.56;87.24
70246;SHT30;57637;49.272;8.590;2024-01-15T05:44:36;-1.54;87.31
70246;SHT30;57637;49.272;8.590;2024-01-15T05:47:01;-1.56;87.38
70246;SHT30;57637;49.272;8.590;2024-01-15T05:49:26;-1.52;87.41
70246;SHT30;57637;49.272;8.590;2024-01-15T05:51:51;-1.50;87.52
70246;SHT30;57637;49.272;8.590;2024-01-15T05:54:18;-1.50;87.48
70246;SHT30;57637;49.272;8.590;2024-01-15T05:56:43;-1.51;87.35
70246;SHT30;57637;49.272;8.590;2024-01-15T05:59:09;-1.48;87.42
70246;SHT30;57637;49.272;8.590;2024-01-15T06:01:34;-1.51;87.29
70246;SHT30;57637;49.272;8.590;2024-01-15T06:03:59;-1.52;87.38
70246;SHT30;57637;49.272;8.590;2024-01-15T06:06:25;-1.52;87.33
70246;SHT30;57637;49.272;8.590;2024-01-15T06:08:50;-1.51;87.39
70246;SHT30;57637;49.272;8.590;2024-01-15T06:11:15;-1.51;87.41
70246;SHT30;57637;49.272;8.590;2024-01-15T06:13:40;-1.51;87.47
70246;SHT30;57637;49.272;8.590;2024-01-15T06:16:15;-1.50;87.46
70246;SHT30;57637;49.272;8.590;2024-01-15T06:18:45;-1.47;87.39
70246;SHT30;57637;49.272;8.590;2024-01-15T06:21:10;-1.48;87.40
70246;SHT30;57637;49.272;8.590;2024-01-15T06:23:37;-1.48;87.48
70246;SHT30;57637;49.272;8.590;2024-01-15T06:26:03;-1.48;87.53
70246;SHT30;57637;49.272;8.590;2024-01-15T06:28:29;-1.48;87.51
70246;SHT30;57637;49.272;8.590;2024-01-15T06:30:54;-1.48;87.50
70246;SHT30;57637;49.272;8.590;2024-01-15T06:33:19;-1.51;87.61
70246;SHT30;57637;49.272;8.590;2024-01-15T06:35:45;-1.48;87.65
70246;SHT30;57637;49.272;8.590;2024-01-15T06:38:10;-1.45;87.64
70246;SHT30;57637;49.272;8.590;2024-01-15T06:40:35;-1.45;87.64
70246;SHT30;57637;49.272;8.590;2024-01-15T06:43:00;-1.43;87.57
70246;SHT30;57637;49.272;8.590;2024-01-15T06:45:26;-1.40;87.55
70246;SHT30;57637;49.272;8.590;2024-01-15T06:47:51;-1.41;87.63
70246;SHT30;57637;49.272;8.590;2024-01-15T06:50:16;-1.40;87.62
70246;SHT30;57637;49.272;8.590;2024-01-15T06:52:42;-1.38;87.75
70246;SHT30;57637;49.272;8.590;2024-01-15T06:55:07;-1.33;87.83
70246;SHT30;57637;49.272;8.590;2024-01-15T06:57:33;-1.23;88.10
70246;SHT30;57637;49.272;8.590;2024-01-15T06:59:58;-1.24;87.72
70246;SHT30;57637;49.272;8.590;2024-01-15T07:02:23;-1.21;87.68
70246;SHT30;57637;49.272;8.590;2024-01-15T07:04:49;-1.17;87.55
70246;SHT30;57637;49.272;8.590;2024-01-15T07:07:14;-1.15;87.44
70246;SHT30;57637;49.272;8.590;2024-01-15T07:09:40;-1.13;87.25
70246;SHT30;57637;49.272;8.590;2024-01-15T07:12:06;-1.14;87.18
70246;SHT30;57637;49.272;8.590;2024-01-15T07:14:31;-1.11;87.21
70246;SHT30;57637;49.272;8.590;2024-01-15T07:16:56;-1.08;87.12
70246;SHT30;57637;49.272;8.590;2024-01-15T07:19:22;-1.07;87.13
70246;SHT30;57637;49.272;8.590;2024-01-15T07:21:47;-1.05;87.14
70246;SHT30;57637;49.272;8.590;2024-01-15T07:24:12;-1.03;87.18
70246;SHT30;57637;49.272;8.590;2024-01-15T07:26:38;-1.00;87.12
70246;SHT30;57637;49.272;8.590;2024-01-15T07:29:03;-0.99;87.14
70246;SHT30;57637;49.272;8.590;2024-01-15T07:31:29;-0.97;87.15
70246;SHT30;57637;49.272;8.590;2024-01-15T07:33:54;-0.93;87.16
70246;SHT30;57637;49.272;8.590;2024-01-15T07:36:19;-0.94;87.07
70246;SHT30;57637;49.272;8.590;2024-01-15T07:38:45;-0.94;86.98
70246;SHT30;57637;49.272;8.590;2024-01-15T07:41:11;-0.89;86.97
70246;SHT30;57637;49.272;8.590;2024-01-15T07:43:38;-0.89;87.00
70246;SHT30;57637;49.272;8.590;2024-01-15T07:46:04;-0.89;87.01
70246;SHT30;57637;49.272;8.590;2024-01-15T07:48:29;-0.87;86.92
70246;SHT30;57637;49.272;8.590;2024-01-15T07:50:54;-0.89;86.93
70246;SHT30;57637;49.272;8.590;2024-01-15T07:53:19;-0.89;86.89
70246;SHT30;57637;49.272;8.590;2024-01-15T07:55:45;-0.87;86.94
70246;SHT30;57637;49.272;8.590;2024-01-15T07:58:11;-0.87;86.84
70246;SHT30;57637;49.272;8.590;2024-01-15T08:00:36;-0.87;86.85
70246;SHT30;57637;49.272;8.590;2024-01-15T08:03:01;-0.84;86.84
70246;SHT30;57637;49.272;8.590;2024-01-15T08:05:27;-0.87;86.88
70246;SHT30;57637;49.272;8.590;2024-01-15T08:07:53;-0.84;86.91
70246;SHT30;57637;49.272;8.590;2024-01-15T08:10:18;-0.83;86.82
70246;SHT30;57637;49.272;8.590;2024-01-15T08:12:44;-0.80;86.86
70246;SHT30;57637;49.272;8.590;2024-01-15T08:15:09;-0.76;86.97
70246;SHT30;57637;49.272;8.590;2024-01-15T08:17:35;-0.77;86.87
70246;SHT30;57637;49.272;8.590;2024-01-15T08:20:00;-0.74;86.88
70246;SHT30;57637;49.272;8.590;2024-01-15T08:22:26;-0.73;86.90
70246;SHT30;57637;49.272;8.590;2024-01-15T08:24:51;-0.72;86.82
70246;SHT30;57637;49.272;8.590;2024-01-15T08:27:17;-0.69;86.86
70246;SHT30;57637;49.272;8.590;2024-01-15T08:29:42;-0.66;86.78
70246;SHT30;57637;49.272;8.590;2024-01-15T08:32:08;-0.62;86.86
70246;SHT30;57637;49.272;8.590;2024-01-15T08:34:38;-0.60;86.71
70246;SHT30;57637;49.272;8.590;2024-01-15T08:37:04;-0.58;86.72
70246;SHT30;57637;49.272;8.590;2024-01-15T08:39:29;-0.53;86.75
70246;SHT30;57637;49.272;8.590;2024-01-15T08:41:54;-0.52;86.62
70246;SHT30;57637;49.272;8.590;2024-01-15T08:44:20;-0.52;86.50
70246;SHT30;57637;49.272;8.590;2024-01-15T08:46:45;-0.49;86.48
70246;SHT30;57637;49.272;8.590;2024-01-15T08:49:10;-0.48;86.39
70246;SHT30;57637;49.272;8.590;2024-01-15T08:51:35;-0.41;86.42
70246;SHT30;57637;49.272;8.590;2024-01-15T08:54:01;-0.39;86.38
70246;SHT30;57637;49.272;8.590;2024-01-15T08:56:27;-0.33;86.35
70246;SHT30;57637;49.272;8.590;2024-01-15T08:58:52;-0.28;86.32
70246;SHT30;57637;49.272;8.590;2024-01-15T09:01:17;-0.26;86.33
70246;SHT30;57637;49.272;8.590;2024-01-15T09:03:44;-0.22;86.27
70246;SHT30;57637;49.272;8.590;2024-01-15T09:06:09;-0.19;86.22
70246;SHT30;57637;49.272;8.590;2024-01-15T09:08:35;-0.11;86.17
70246;SHT30;57637;49.272;8.590;2024-01-15T09:11:01;-0.07;86.10
70246;SHT30;57637;49.272;8.590;2024-01-15T09:13:28;-0.05;86.06
70246;SHT30;57637;49.272;8.590;2024-01-15T09:15:53;-0.01;86.05
70246;SHT30;57637;49.272;8.590;2024-01-15T09:18:18;0.02;86.09
70246;SHT30;57637;49.272;8.590;2024-01-15T09:20:43;0.03;86.20
70246;SHT30;57637;49.272;8.590;2024-01-15T09:23:09;0.06;86.21
70246;SHT30;57637;49.272;8.590;2024-01-15T09:25:34;0.06;86.31
70246;SHT30;57637;49.272;8.590;2024-01-15T09:27:59;0.13;86.38
70246;SHT30;57637;49.272;8.590;2024-01-15T09:30:25;0.16;86.47
70246;SHT30;57637;49.272;8.590;2024-01-15T09:32:50;0.19;86.67
70246;SHT30;57637;49.272;8.590;2024-01-15T09:35:15;0.17;86.98
70246;SHT30;57637;49.272;8.590;2024-01-15T09:37:41;0.17;87.21
70246;SHT30;57637;49.272;8.590;2024-01-15T09:40:06;0.17;87.79
70246;SHT30;57637;49.272;8.590;2024-01-15T09:42:33;0.19;88.12
70246;SHT30;57637;49.272;8.590;2024-01-15T09:45:00;0.24;88.24
70246;SHT30;57637;49.272;8.590;2024-01-15T09:47:28;0.24;88.25
70246;SHT30;57637;49.272;8.590;2024-01-15T09:49:53;0.26;88.31
70246;SHT30;57637;49.272;8.590;2024-01-15T09:52:19;0.24;88.49
70246;SHT30;57637;49.272;8.590;2024-01-15T09:54:46;0.22;88.83
70246;SHT30;57637;49.272;8.590;2024-01-15T09:57:12;0.27;89.10
70246;SHT30;57637;49.272;8.590;2024-01-15T09:59:37;0.29;89.27
70246;SHT30;57637;49.272;8.590;2024-01-15T10:02:04;0.27;89.47
70246;SHT30;57637;49.272;8.590;2024-01-15T10:04:31;0.23;89.72
70246;SHT30;57637;49.272;8.590;2024-01-15T10:06:57;0.26;89.85
70246;SHT30;57637;49.272;8.590;2024-01-15T10:09:25;0.30;89.88
70246;SHT30;57637;49.272;8.590;2024-01-15T10:11:50;0.34;90.07
70246;SHT30;57637;49.272;8.590;2024-01-15T10:14:16;0.37;90.14
70246;SHT30;57637;49.272;8.590;2024-01-15T10:16:41;0.39;90.14
70246;SHT30;57637;49.272;8.590;2024-01-15T10:19:07;0.39;90.27
70246;SHT30;57637;49.272;8.590;2024-01-15T10:21:36;0.44;90.58
70246;SHT30;57637;49.272;8.590;2024-01-15T10:24:02;0.44;90.60
70246;SHT30;57637;49.272;8.590;2024-01-15T10:26:29;0.44;90.93
70246;SHT30;57637;49.272;8.590;2024-01-15T10:28:55;0.37;91.43
70246;SHT30;57637;49.272;8.590;2024-01-15T10:31:21;0.37;91.65
70246;SHT30;57637;49.272;8.590;2024-01-15T10:33:47;0.49;92.11
70246;SHT30;57637;49.272;8.590;2024-01-15T10:36:13;0.54;92.02
70246;SHT30;57637;49.272;8.590;2024-01-15T10:38:41;0.73;91.95
70246;SHT30;57637;49.272;8.590;2024-01-15T10:41:07;0.80;91.92
70246;SHT30;57637;49.272;8.590;2024-01-15T10:43:33;0.78;91.67
70246;SHT30;57637;49.272;8.590;2024-01-15T10:45:59;0.77;91.40
70246;SHT30;57637;49.272;8.590;2024-01-15T10:48:24;0.80;91.56
70246;SHT30;57637;49.272;8.590;2024-01-15T10:50:51;0.84;91.53
70246;SHT30;57637;49.272;8.590;2024-01-15T10:53:17;0.85;91.41
70246;SHT30;57637;49.272;8.590;2024-01-15T10:55:43;0.85;91.47
70246;SHT30;57637;49.272;8.590;2024-01-15T10:58:09;0.88;91.59
70246;SHT30;57637;49.272;8.590;2024-01-15T11:00:35;0.89;91.61
70246;SHT30;57637;49.272;8.590;2024-01-15T11:03:02;0.89;91.58
70246;SHT30;57637;49.272;8.590;2024-01-15T11:05:33;0.88;91.83
70246;SHT30;57637;49.272;8.590;2024-01-15T11:07:59;0.88;91.94
70246;SHT30;57637;49.272;8.590;2024-01-15T11:10:42;0.89;92.00
70246;SHT30;57637;49.272;8.590;2024-01-15T11:13:21;0.84;91.97
70246;SHT30;57637;49.272;8.590;2024-01-15T11:18:29;0.92;92.15
70246;SHT30;57637;49.272;8.590;2024-01-15T11:23:46;0.95;91.82
70246;SHT30;57637;49.272;8.590;2024-01-15T11:26:32;0.91;91.63
70246;SHT30;57637;49.272;8.590;2024-01-15T11:28:58;0.84;91.47
70246;SHT30;57637;49.272;8.590;2024-01-15T11:34:08;0.83;91.67
70246;SHT30;57637;49.272;8.590;2024-01-15T11:41:56;0.95;91.34
70246;SHT30;57637;49.272;8.590;2024-01-15T11:44:22;1.02;91.37
70246;SHT30;57637;49.272;8.590;2024-01-15T11:47:01;0.97;91.08
70246;SHT30;57637;49.272;8.590;2024-01-15T11:52:26;1.05;91.09
70246;SHT30;57637;49.272;8.590;2024-01-15T12:00:08;1.16;90.93
70246;SHT30;57637;49.272;8.590;2024-01-15T12:02:35;1.14;90.70
70246;SHT30;57637;49.272;8.590;2024-01-15T12:05:01;1.12;90.76
70246;SHT30;57637;49.272;8.590;2024-01-15T12:07:26;1.09;90.71
70246;SHT30;57637;49.272;8.590;2024-01-15T12:09:51;1.09;90.76
70246;SHT30;57637;49.272;8.590;2024-01-15T12:15:05;1.02;90.87
70246;SHT30;57637;49.272;8.590;2024-01-15T12:17:31;0.99;91.00
70246;SHT30;57637;49.272;8.590;2024-01-15T12:19:56;0.95;91.13
70246;SHT30;57637;49.272;8.590;2024-01-15T12:22:22;0.92;91.36
70246;SHT30;57637;49.272;8.590;2024-01-15T12:24:47;0.95;91.48
70246;SHT30;57637;49.272;8.590;2024-01-15T12:27:12;0.91;91.69
70246;SHT30;57637;49.272;8.590;2024-01-15T12:29:38;0.94;91.84
70246;SHT30;57637;49.272;8.590;2024-01-15T12:32:04;0.99;91.67
70246;SHT30;57637;49.272;8.590;2024-01-15T12:34:30;1.04;91.64
70246;SHT30;57637;49.272;8.590;2024-01-15T12:36:57;1.14;91.70
70246;SHT30;57637;49.272;8.590;2024-01-15T12:39:22;1.25;91.79
70246;SHT30;57637;49.272;8.590;2024-01-15T12:41:49;1.32;91.61
70246;SHT30;57637;49.272;8.590;2024-01-15T12:44:14;1.38;91.40
70246;SHT30;57637;49.272;8.590;2024-01-15T12:46:39;1.42;90.94
70246;SHT30;57637;49.272;8.590;2024-01-15T12:49:05;1.42;90.74
70246;SHT30;57637;49.272;8.590;2024-01-15T12:51:30;1.42;90.76
70246;SHT30;57637;49.272;8.590;2024-01-15T12:53:59;1.45;90.60
70246;SHT30;57637;49.272;8.590;2024-01-15T12:56:24;1.55;90.63
70246;SHT30;57637;49.272;8.590;2024-01-15T12:58:49;1.56;90.31
70246;SHT30;57637;49.272;8.590;2024-01-15T13:01:14;1.62;90.27
70246;SHT30;57637;49.272;8.590;2024-01-15T13:03:40;1.60;90.26
70246;SHT30;57637;49.272;8.590;2024-01-15T13:06:05;1.64;90.06
70246;SHT30;57637;49.272;8.590;2024-01-15T13:08:31;1.71;89.93
70246;SHT30;57637;49.272;8.590;2024-01-15T13:10:57;1.69;89.51
70246;SHT30;57637;49.272;8.590;2024-01-15T13:13:22;1.71;89.54
70246;SHT30;57637;49.272;8.590;2024-01-15T13:15:48;1.63;89.49
70246;SHT30;57637;49.272;8.590;2024-01-15T13:18:13;1.64;89.75
70246;SHT30;57637;49.272;8.590;2024-01-15T13:20:39;1.67;89.81
70246;SHT30;57637;49.272;8.590;2024-01-15T13:23:04;1.64;89.79
70246;SHT30;57637;49.272;8.590;2024-01-15T13:25:29;1.56;89.72
70246;SHT30;57637;49.272;8.590;2024-01-15T13:27:55;1.42;90.35
70246;SHT30;57637;49.272;8.590;2024-01-15T13:30:20;1.50;90.44
70246;SHT30;57637;49.272;8.590;2024-01-15T13:32:45;1.55;90.18
70246;SHT30;57637;49.272;8.590;2024-01-15T13:35:11;1.63;89.95
70246;SHT30;57637;49.272;8.590;2024-01-15T13:37:38;1.60;89.81
70246;SHT30;57637;49.272;8.590;2024-01-15T13:40:06;1.60;89.59
70246;SHT30;57637;49.272;8.590;2024-01-15T13:42:34;1.69;89.38
70246;SHT30;57637;49.272;8.590;2024-01-15T13:44:59;1.77;89.24
70246;SHT30;57637;49.272;8.590;2024-01-15T13:47:25;1.89;89.05
70246;SHT30;57637;49.272;8.590;2024-01-15T13:49:50;1.97;88.80
70246;SHT30;57637;49.272;8.590;2024-01-15T13:52:15;1.96;88.50
70246;SHT30;57637;49.272;8.590;2024-01-15T13:54:41;2.01;88.67
70246;SHT30;57637;49.272;8.590;2024-01-15T13:57:07;1.90;88.53
70246;SHT30;57637;49.272;8.590;2024-01-15T13:59:32;1.87;88.74
70246;SHT30;57637;49.272;8.590;2024-01-15T14:01:58;1.90;88.97
70246;SHT30;57637;49.272;8.590;2024-01-15T14:04:23;1.86;88.82
70246;SHT30;57637;49.272;8.590;2024-01-15T14:06:48;1.91;88.78
70246;SHT30;57637;49.272;8.590;2024-01-15T14:09:13;1.90;88.15
70246;SHT30;57637;49.272;8.590;2024-01-15T14:11:39;1.96;88.08
70246;SHT30;57637;49.272;8.590;2024-01-15T14:14:05;2.00;87.99
70246;SHT30;57637;49.272;8.590;2024-01-15T14:16:32;2.10;87.92
70246;SHT30;57637;49.272;8.590;2024-01-15T14:18:58;2.07;87.58
70246;SHT30;57637;49.272;8.590;2024-01-15T14:21:23;2.21;87.78
70246;SHT30;57637;49.272;8.590;2024-01-15T14:23:49;2.27;86.90
70246;SHT30;57637;49.272;8.590;2024-01-15T14:26:14;2.31;86.58
70246;SHT30;57637;49.272;8.590;2024-01-15T14:28:39;2.38;86.27
70246;SHT30;57637;49.272;8.590;2024-01-15T14:31:05;2.46;85.92
70246;SHT30;57637;49.272;8.590;2024-01-15T14:33:30;2.48;85.76
70246;SHT30;57637;49.272;8.590;2024-01-15T14:35:56;2.41;85.25
70246;SHT30;57637;49.272;8.590;2024-01-15T14:38:22;2.44;85.41
70246;SHT30;57637;49.272;8.590;2024-01-15T14:40:48;2.41;85.14
70246;SHT30;57637;49.272;8.590;2024-01-15T14:43:14;2.44;84.70
70246;SHT30;57637;49.272;8.590;2024-01-15T14:45:40;2.40;84.57
70246;SHT30;57637;49.272;8.590;2024-01-15T14:48:05;2.31;84.61
70246;SHT30;57637;49.272;8.590;2024-01-15T14:50:31;2.21;84.69
70246;SHT30;57637;49.272;8.590;2024-01-15T14:52:56;2.15;85.06
70246;SHT30;57637;49.272;8.590;2024-01-15T14:55:22;1.97;84.86
70246;SHT30;57637;49.272;8.590;2024-01-15T14:57:48;1.99;85.16
70246;SHT30;57637;49.272;8.590;2024-01-15T15:00:14;1.93;84.82
70246;SHT30;57637;49.272;8.590;2024-01-15T15:02:41;1.86;84.77
70246;SHT30;57637;49.272;8.590;2024-01-15T15:05:07;1.93;84.70
70246;SHT30;57637;49.272;8.590;2024-01-15T15:07:32;1.89;84.35
70246;SHT30;57637;49.272;8.590;2024-01-15T15:09:58;1.89;84.19
70246;SHT30;57637;49.272;8.590;2024-01-15T15:12:24;1.79;84.04
70246;SHT30;57637;49.272;8.590;2024-01-15T15:14:49;1.77;84.15
70246;SHT30;57637;49.272;8.590;2024-01-15T15:17:14;1.76;84.35
70246;SHT30;57637;49.272;8.590;2024-01-15T15:19:39;1.74;84.36
70246;SHT30;57637;49.272;8.590;2024-01-15T15:22:06;1.74;84.64
70246;SHT30;57637;49.272;8.590;2024-01-15T15:24:34;1.69;84.53
70246;SHT30;57637;49.272;8.590;2024-01-15T15:27:00;1.63;84.52
70246;SHT30;57637;49.272;8.590;2024-01-15T15:29:25;1.62;84.66
70246;SHT30;57637;49.272;8.590;2024-01-15T15:31:51;1.53;84.67
70246;SHT30;57637;49.272;8.590;2024-01-15T15:34:16;1.46;84.74
70246;SHT30;57637;49.272;8.590;2024-01-15T15:36:42;1.40;84.86
70246;SHT30;57637;49.272;8.590;2024-01-15T15:39:07;1.35;85.17
70246;SHT30;57637;49.272;8.590;2024-01-15T15:41:32;1.32;85.33
70246;SHT30;57637;49.272;8.590;2024-01-15T15:43:58;1.29;85.34
70246;SHT30;57637;49.272;8.590;2024-01-15T15:46:23;1.24;85.47
70246;SHT30;57637;49.272;8.590;2024-01-15T15:48:48;1.24;85.42
70246;SHT30;57637;49.272;8.590;2024-01-15T15:51:14;1.22;85.43
70246;SHT30;57637;49.272;8.590;2024-01-15T15:53:39;1.19;85.44